sensor_id;sensor_type;location;lat;lon;timestamp;P1;durP1;ratioP1;P2;durP2;ratioP2
10082;SDS011;5080;48.528;8.078;2022-08-19T00:00:07;2.33;;;2.23;;
10082;SDS011;5080;48.528;8.078;2022-08-19T00:02:36;2.27;;;2.17;;
10082;SDS011;5080;48.528;8.078;2022-08-19T00:05:03;2.47;;;2.37;;
10082;SDS011;5080;48.528;8.078;2022-08-19T00:07:32;2.40;;;2.30;;
10082;SDS011;5080;48.528;8.078;2022-08-19T00:09:59;2.17;;;2.07;;
10082;SDS011;5080;48.528;8.078;2022-08-19T00:12:26;2.27;;;2.17;;
10082;SDS011;5080;48.528;8.078;2022-08-19T00:14:53;2.47;;;2.37;;
10082;SDS011;5080;48.528;8.078;2022-08-19T00:17:20;2.30;;;2.20;;
10082;SDS011;5080;48.528;8.078;2022-08-19T00:19:47;2.30;;;2.20;;
10082;SDS011;5080;48.528;8.078;2022-08-19T00:22:14;2.13;;;2.03;;
10082;SDS011;5080;48.528;8.078;2022-08-19T00:24:44;2.30;;;2.20;;
10082;SDS011;5080;48.528;8.078;2022-08-19T00:27:11;2.30;;;2.20;;
10082;SDS011;5080;48.528;8.078;2022-08-19T00:29:39;2.17;;;2.07;;
10082;SDS011;5080;48.528;8.078;2022-08-19T00:32:06;2.50;;;2.40;;
10082;SDS011;5080;48.528;8.078;2022-08-19T00:34:33;2.30;;;2.20;;
10082;SDS011;5080;48.528;8.078;2022-08-19T00:37:00;2.40;;;2.20;;
10082;SDS011;5080;48.528;8.078;2022-08-19T00:39:27;2.70;;;2.60;;
10082;SDS011;5080;48.528;8.078;2022-08-19T00:41:55;2.40;;;2.30;;
10082;SDS011;5080;48.528;8.078;2022-08-19T00:44:23;2.20;;;2.10;;
10082;SDS011;5080;48.528;8.078;2022-08-19T00:46:52;2.23;;;2.03;;
10082;SDS011;5080;48.528;8.078;2022-08-19T00:49:22;2.43;;;2.33;;
10082;SDS011;5080;48.528;8.078;2022-08-19T00:51:59;2.07;;;1.97;;
10082;SDS011;5080;48.528;8.078;2022-08-19T00:54:29;2.33;;;2.23;;
10082;SDS011;5080;48.528;8.078;2022-08-19T00:56:59;2.40;;;2.30;;
10082;SDS011;5080;48.528;8.078;2022-08-19T00:59:30;2.67;;;2.50;;
10082;SDS011;5080;48.528;8.078;2022-08-19T01:01:57;2.43;;;2.33;;
10082;SDS011;5080;48.528;8.078;2022-08-19T01:04:24;2.40;;;2.30;;
10082;SDS011;5080;48.528;8.078;2022-08-19T01:06:51;2.53;;;2.40;;
10082;SDS011;5080;48.528;8.078;2022-08-19T01:09:17;2.20;;;2.10;;
10082;SDS011;5080;48.528;8.078;2022-08-19T01:11:44;2.20;;;2.10;;
10082;SDS011;5080;48.528;8.078;2022-08-19T01:14:13;2.20;;;2.10;;
10082;SDS011;5080;48.528;8.078;2022-08-19T01:16:42;2.40;;;2.30;;
10082;SDS011;5080;48.528;8.078;2022-08-19T01:19:11;2.30;;;2.20;;
10082;SDS011;5080;48.528;8.078;2022-08-19T01:21:52;2.30;;;2.20;;
10082;SDS011;5080;48.528;8.078;2022-08-19T01:24:25;2.40;;;2.30;;
10082;SDS011;5080;48.528;8.078;2022-08-19T01:26:51;2.20;;;2.10;;
10082;SDS011;5080;48.528;8.078;2022-08-19T01:29:19;2.20;;;2.10;;
10082;SDS011;5080;48.528;8.078;2022-08-19T01:31:46;2.13;;;2.03;;
10082;SDS011;5080;48.528;8.078;2022-08-19T01:34:17;2.37;;;2.27;;
10082;SDS011;5080;48.528;8.078;2022-08-19T01:36:45;1.83;;;1.73;;
10082;SDS011;5080;48.528;8.078;2022-08-19T01:39:16;1.83;;;1.73;;
10082;SDS011;5080;48.528;8.078;2022-08-19T01:41:46;2.20;;;2.10;;
10082;SDS011;5080;48.528;8.078;2022-08-19T01:44:14;2.27;;;2.17;;
10082;SDS011;5080;48.528;8.078;2022-08-19T01:46:45;2.10;;;2.00;;
10082;SDS011;5080;48.528;8.078;2022-08-19T01:49:14;2.27;;;2.17;;
10082;SDS011;5080;48.528;8.078;2022-08-19T01:51:41;2.00;;;1.90;;
10082;SDS011;5080;48.528;8.078;2022-08-19T01:54:08;2.10;;;2.00;;
10082;SDS011;5080;48.528;8.078;2022-08-19T01:56:36;2.00;;;1.90;;
10082;SDS011;5080;48.528;8.078;2022-08-19T01:59:06;1.83;;;1.80;;
10082;SDS011;5080;48.528;8.078;2022-08-19T02:01:36;2.10;;;2.00;;
10082;SDS011;5080;48.528;8.078;2022-08-19T02:04:03;2.00;;;1.90;;
10082;SDS011;5080;48.528;8.078;2022-08-19T02:06:31;2.00;;;1.90;;
10082;SDS011;5080;48.528;8.078;2022-08-19T02:08:58;2.00;;;1.90;;
10082;SDS011;5080;48.528;8.078;2022-08-19T02:11:27;2.33;;;2.23;;
10082;SDS011;5080;48.528;8.078;2022-08-19T02:13:56;2.10;;;2.00;;
10082;SDS011;5080;48.528;8.078;2022-08-19T02:16:25;2.20;;;2.10;;
10082;SDS011;5080;48.528;8.078;2022-08-19T02:18:51;2.10;;;2.00;;
10082;SDS011;5080;48.528;8.078;2022-08-19T02:21:20;2.13;;;2.03;;
10082;SDS011;5080;48.528;8.078;2022-08-19T02:23:48;2.10;;;2.00;;
10082;SDS011;5080;48.528;8.078;2022-08-19T02:26:15;2.30;;;2.20;;
10082;SDS011;5080;48.528;8.078;2022-08-19T02:28:42;2.63;;;2.53;;
10082;SDS011;5080;48.528;8.078;2022-08-19T02:31:10;2.40;;;2.30;;
10082;SDS011;5080;48.528;8.078;2022-08-19T02:33:40;2.00;;;1.90;;
10082;SDS011;5080;48.528;8.078;2022-08-19T02:36:07;2.17;;;2.07;;
10082;SDS011;5080;48.528;8.078;2022-08-19T02:38:37;2.40;;;2.20;;
10082;SDS011;5080;48.528;8.078;2022-08-19T02:41:04;3.10;;;2.23;;
10082;SDS011;5080;48.528;8.078;2022-08-19T02:43:35;2.17;;;2.07;;
10082;SDS011;5080;48.528;8.078;2022-08-19T02:46:02;2.27;;;2.17;;
10082;SDS011;5080;48.528;8.078;2022-08-19T02:48:39;2.00;;;1.90;;
10082;SDS011;5080;48.528;8.078;2022-08-19T02:51:06;2.80;;;2.70;;
10082;SDS011;5080;48.528;8.078;2022-08-19T02:53:33;2.40;;;2.30;;
10082;SDS011;5080;48.528;8.078;2022-08-19T02:56:00;2.40;;;2.30;;
10082;SDS011;5080;48.528;8.078;2022-08-19T02:58:26;2.33;;;2.23;;
10082;SDS011;5080;48.528;8.078;2022-08-19T03:00:54;2.23;;;2.13;;
10082;SDS011;5080;48.528;8.078;2022-08-19T03:03:22;2.07;;;1.97;;
10082;SDS011;5080;48.528;8.078;2022-08-19T03:05:50;2.10;;;2.00;;
10082;SDS011;5080;48.528;8.078;2022-08-19T03:08:18;4.37;;;2.53;;
10082;SDS011;5080;48.528;8.078;2022-08-19T03:10:46;2.10;;;2.00;;
10082;SDS011;5080;48.528;8.078;2022-08-19T03:13:14;1.80;;;1.80;;
10082;SDS011;5080;48.528;8.078;2022-08-19T03:15:44;2.20;;;2.10;;
10082;SDS011;5080;48.528;8.078;2022-08-19T03:18:12;2.60;;;2.50;;
10082;SDS011;5080;48.528;8.078;2022-08-19T03:20:41;2.43;;;2.33;;
10082;SDS011;5080;48.528;8.078;2022-08-19T03:23:11;2.30;;;2.20;;
10082;SDS011;5080;48.528;8.078;2022-08-19T03:25:39;2.40;;;2.30;;
10082;SDS011;5080;48.528;8.078;2022-08-19T03:28:08;2.30;;;2.20;;
10082;SDS011;5080;48.528;8.078;2022-08-19T03:30:37;2.90;;;2.80;;
10082;SDS011;5080;48.528;8.078;2022-08-19T03:33:04;2.53;;;2.43;;
10082;SDS011;5080;48.528;8.078;2022-08-19T03:35:31;3.17;;;2.97;;
10082;SDS011;5080;48.528;8.078;2022-08-19T03:38:01;2.70;;;2.50;;
10082;SDS011;5080;48.528;8.078;2022-08-19T03:40:29;2.30;;;2.20;;
10082;SDS011;5080;48.528;8.078;2022-08-19T03:42:56;3.00;;;2.80;;
10082;SDS011;5080;48.528;8.078;2022-08-19T03:45:23;2.53;;;2.43;;
10082;SDS011;5080;48.528;8.078;2022-08-19T03:47:50;2.40;;;2.30;;
10082;SDS011;5080;48.528;8.078;2022-08-19T03:50:17;2.40;;;2.30;;
10082;SDS011;5080;48.528;8.078;2022-08-19T03:52:47;2.70;;;2.60;;
10082;SDS011;5080;48.528;8.078;2022-08-19T03:55:14;2.50;;;2.40;;
10082;SDS011;5080;48.528;8.078;2022-08-19T03:57:43;2.80;;;2.70;;
10082;SDS011;5080;48.528;8.078;2022-08-19T04:00:13;2.90;;;2.80;;
10082;SDS011;5080;48.528;8.078;2022-08-19T04:02:40;3.23;;;3.03;;
10082;SDS011;5080;48.528;8.078;2022-08-19T04:05:08;3.50;;;3.30;;
10082;SDS011;5080;48.528;8.078;2022-08-19T04:07:35;3.00;;;2.90;;
10082;SDS011;5080;48.528;8.078;2022-08-19T04:10:02;3.40;;;3.20;;
10082;SDS011;5080;48.528;8.078;2022-08-19T04:12:30;2.70;;;2.60;;
10082;SDS011;5080;48.528;8.078;2022-08-19T04:14:58;3.40;;;3.20;;
10082;SDS011;5080;48.528;8.078;2022-08-19T04:17:25;2.83;;;2.73;;
10082;SDS011;5080;48.528;8.078;2022-08-19T04:19:52;2.60;;;2.50;;
10082;SDS011;5080;48.528;8.078;2022-08-19T04:22:19;2.70;;;2.60;;
10082;SDS011;5080;48.528;8.078;2022-08-19T04:24:45;2.97;;;2.87;;
10082;SDS011;5080;48.528;8.078;2022-08-19T04:27:12;2.57;;;2.47;;
10082;SDS011;5080;48.528;8.078;2022-08-19T04:29:41;3.00;;;2.80;;
10082;SDS011;5080;48.528;8.078;2022-08-19T04:32:09;2.57;;;2.47;;
10082;SDS011;5080;48.528;8.078;2022-08-19T04:34:36;2.50;;;2.40;;
10082;SDS011;5080;48.528;8.078;2022-08-19T04:37:05;2.60;;;2.50;;
10082;SDS011;5080;48.528;8.078;2022-08-19T04:39:38;2.60;;;2.50;;
10082;SDS011;5080;48.528;8.078;2022-08-19T04:42:22;2.90;;;2.70;;
10082;SDS011;5080;48.528;8.078;2022-08-19T04:45:13;2.53;;;2.43;;
10082;SDS011;5080;48.528;8.078;2022-08-19T04:47:42;2.70;;;2.60;;
10082;SDS011;5080;48.528;8.078;2022-08-19T04:50:10;2.70;;;2.60;;
10082;SDS011;5080;48.528;8.078;2022-08-19T04:52:37;3.10;;;3.00;;
10082;SDS011;5080;48.528;8.078;2022-08-19T04:55:08;3.00;;;2.90;;
10082;SDS011;5080;48.528;8.078;2022-08-19T04:57:35;2.90;;;2.80;;
10082;SDS011;5080;48.528;8.078;2022-08-19T05:00:04;2.70;;;2.60;;
10082;SDS011;5080;48.528;8.078;2022-08-19T05:02:32;2.60;;;2.50;;
10082;SDS011;5080;48.528;8.078;2022-08-19T05:05:01;2.47;;;2.37;;
10082;SDS011;5080;48.528;8.078;2022-08-19T05:07:28;2.60;;;2.50;;
10082;SDS011;5080;48.528;8.078;2022-08-19T05:09:56;2.70;;;2.50;;
10082;SDS011;5080;48.528;8.078;2022-08-19T05:12:22;2.63;;;2.53;;
10082;SDS011;5080;48.528;8.078;2022-08-19T05:14:49;2.63;;;2.53;;
10082;SDS011;5080;48.528;8.078;2022-08-19T05:17:17;2.80;;;2.60;;
10082;SDS011;5080;48.528;8.078;2022-08-19T05:19:43;2.70;;;2.60;;
10082;SDS011;5080;48.528;8.078;2022-08-19T05:22:29;2.90;;;2.80;;
10082;SDS011;5080;48.528;8.078;2022-08-19T05:25:00;2.80;;;2.70;;
10082;SDS011;5080;48.528;8.078;2022-08-19T05:27:29;2.83;;;2.73;;
10082;SDS011;5080;48.528;8.078;2022-08-19T05:29:56;3.23;;;3.13;;
10082;SDS011;5080;48.528;8.078;2022-08-19T05:32:22;3.47;;;3.27;;
10082;SDS011;5080;48.528;8.078;2022-08-19T05:34:49;3.27;;;3.07;;
10082;SDS011;5080;48.528;8.078;2022-08-19T05:37:16;2.87;;;2.77;;
10082;SDS011;5080;48.528;8.078;2022-08-19T05:39:45;3.10;;;2.80;;
10082;SDS011;5080;48.528;8.078;2022-08-19T05:42:12;3.20;;;3.10;;
10082;SDS011;5080;48.528;8.078;2022-08-19T05:44:40;3.10;;;2.90;;
10082;SDS011;5080;48.528;8.078;2022-08-19T05:47:09;3.00;;;2.90;;
10082;SDS011;5080;48.528;8.078;2022-08-19T05:49:37;2.50;;;2.40;;
10082;SDS011;5080;48.528;8.078;2022-08-19T05:52:04;2.70;;;2.60;;
10082;SDS011;5080;48.528;8.078;2022-08-19T05:54:32;2.70;;;2.60;;
10082;SDS011;5080;48.528;8.078;2022-08-19T05:57:02;2.93;;;2.83;;
10082;SDS011;5080;48.528;8.078;2022-08-19T05:59:29;2.87;;;2.70;;
10082;SDS011;5080;48.528;8.078;2022-08-19T06:01:56;2.90;;;2.80;;
10082;SDS011;5080;48.528;8.078;2022-08-19T06:04:23;2.80;;;2.70;;
10082;SDS011;5080;48.528;8.078;2022-08-19T06:06:50;3.07;;;2.97;;
10082;SDS011;5080;48.528;8.078;2022-08-19T06:09:19;3.20;;;3.00;;
10082;SDS011;5080;48.528;8.078;2022-08-19T06:11:48;2.63;;;2.53;;
10082;SDS011;5080;48.528;8.078;2022-08-19T06:14:20;3.30;;;3.10;;
10082;SDS011;5080;48.528;8.078;2022-08-19T06:16:49;3.00;;;2.90;;
10082;SDS011;5080;48.528;8.078;2022-08-19T06:19:18;2.63;;;2.53;;
10082;SDS011;5080;48.528;8.078;2022-08-19T06:21:47;2.90;;;2.80;;
10082;SDS011;5080;48.528;8.078;2022-08-19T06:24:16;2.90;;;2.80;;
10082;SDS011;5080;48.528;8.078;2022-08-19T06:26:46;3.00;;;2.90;;
10082;SDS011;5080;48.528;8.078;2022-08-19T06:29:15;3.40;;;3.30;;
10082;SDS011;5080;48.528;8.078;2022-08-19T06:31:44;3.17;;;3.07;;
10082;SDS011;5080;48.528;8.078;2022-08-19T06:34:15;3.10;;;3.00;;
10082;SDS011;5080;48.528;8.078;2022-08-19T06:36:44;3.07;;;2.93;;
10082;SDS011;5080;48.528;8.078;2022-08-19T06:39:13;2.90;;;2.80;;
10082;SDS011;5080;48.528;8.078;2022-08-19T06:41:43;3.33;;;3.13;;
10082;SDS011;5080;48.528;8.078;2022-08-19T06:44:12;2.87;;;2.77;;
10082;SDS011;5080;48.528;8.078;2022-08-19T06:46:39;3.27;;;3.17;;
10082;SDS011;5080;48.528;8.078;2022-08-19T06:49:08;3.30;;;3.10;;
10082;SDS011;5080;48.528;8.078;2022-08-19T06:51:38;3.00;;;2.90;;
10082;SDS011;5080;48.528;8.078;2022-08-19T06:54:06;3.10;;;3.00;;
10082;SDS011;5080;48.528;8.078;2022-08-19T06:56:33;3.00;;;2.90;;
10082;SDS011;5080;48.528;8.078;2022-08-19T06:59:00;3.83;;;3.63;;
10082;SDS011;5080;48.528;8.078;2022-08-19T07:01:28;3.77;;;3.57;;
10082;SDS011;5080;48.528;8.078;2022-08-19T07:03:55;3.27;;;3.17;;
10082;SDS011;5080;48.528;8.078;2022-08-19T07:06:23;3.80;;;3.60;;
10082;SDS011;5080;48.528;8.078;2022-08-19T07:08:50;3.90;;;3.70;;
10082;SDS011;5080;48.528;8.078;2022-08-19T07:11:17;4.10;;;3.90;;
10082;SDS011;5080;48.528;8.078;2022-08-19T07:13:45;3.63;;;3.43;;
10082;SDS011;5080;48.528;8.078;2022-08-19T07:16:14;3.77;;;3.57;;
10082;SDS011;5080;48.528;8.078;2022-08-19T07:18:44;3.70;;;3.50;;
10082;SDS011;5080;48.528;8.078;2022-08-19T07:21:12;3.90;;;3.70;;
10082;SDS011;5080;48.528;8.078;2022-08-19T07:23:42;3.70;;;3.50;;
10082;SDS011;5080;48.528;8.078;2022-08-19T07:26:11;3.90;;;3.70;;
10082;SDS011;5080;48.528;8.078;2022-08-19T07:28:39;3.90;;;3.70;;
10082;SDS011;5080;48.528;8.078;2022-08-19T07:31:09;4.00;;;3.80;;
10082;SDS011;5080;48.528;8.078;2022-08-19T07:33:37;3.70;;;3.40;;
10082;SDS011;5080;48.528;8.078;2022-08-19T07:36:05;4.10;;;3.90;;
10082;SDS011;5080;48.528;8.078;2022-08-19T07:38:36;3.70;;;3.50;;
10082;SDS011;5080;48.528;8.078;2022-08-19T07:41:05;4.30;;;4.10;;
10082;SDS011;5080;48.528;8.078;2022-08-19T07:43:32;4.10;;;3.90;;
10082;SDS011;5080;48.528;8.078;2022-08-19T07:45:59;3.90;;;3.60;;
10082;SDS011;5080;48.528;8.078;2022-08-19T07:48:27;4.83;;;4.53;;
10082;SDS011;5080;48.528;8.078;2022-08-19T07:50:54;3.37;;;3.27;;
10082;SDS011;5080;48.528;8.078;2022-08-19T07:53:24;4.07;;;3.87;;
10082;SDS011;5080;48.528;8.078;2022-08-19T07:55:51;4.17;;;3.97;;
10082;SDS011;5080;48.528;8.078;2022-08-19T07:58:20;4.30;;;4.10;;
10082;SDS011;5080;48.528;8.078;2022-08-19T08:00:48;4.13;;;3.93;;
10082;SDS011;5080;48.528;8.078;2022-08-19T08:03:18;4.20;;;4.00;;
10082;SDS011;5080;48.528;8.078;2022-08-19T08:06:07;3.90;;;3.70;;
10082;SDS011;5080;48.528;8.078;2022-08-19T08:08:51;4.07;;;3.87;;
10082;SDS011;5080;48.528;8.078;2022-08-19T08:11:35;3.70;;;3.50;;
10082;SDS011;5080;48.528;8.078;2022-08-19T08:14:03;4.20;;;4.00;;
10082;SDS011;5080;48.528;8.078;2022-08-19T08:16:32;4.03;;;3.83;;
10082;SDS011;5080;48.528;8.078;2022-08-19T08:19:00;3.93;;;3.73;;
10082;SDS011;5080;48.528;8.078;2022-08-19T08:21:27;4.30;;;4.10;;
10082;SDS011;5080;48.528;8.078;2022-08-19T08:23:54;4.10;;;3.73;;
10082;SDS011;5080;48.528;8.078;2022-08-19T08:26:21;4.50;;;4.30;;
10082;SDS011;5080;48.528;8.078;2022-08-19T08:28:50;4.40;;;4.20;;
10082;SDS011;5080;48.528;8.078;2022-08-19T08:31:18;3.70;;;3.50;;
10082;SDS011;5080;48.528;8.078;2022-08-19T08:33:46;3.60;;;3.40;;
10082;SDS011;5080;48.528;8.078;2022-08-19T08:36:13;4.17;;;3.97;;
10082;SDS011;5080;48.528;8.078;2022-08-19T08:38:40;4.50;;;4.30;;
10082;SDS011;5080;48.528;8.078;2022-08-19T08:41:11;4.30;;;4.10;;
10082;SDS011;5080;48.528;8.078;2022-08-19T08:43:45;4.30;;;4.00;;
10082;SDS011;5080;48.528;8.078;2022-08-19T08:46:18;3.27;;;3.13;;
10082;SDS011;5080;48.528;8.078;2022-08-19T08:48:49;3.87;;;3.67;;
10082;SDS011;5080;48.528;8.078;2022-08-19T08:51:21;3.97;;;3.77;;
10082;SDS011;5080;48.528;8.078;2022-08-19T08:53:51;3.90;;;3.70;;
10082;SDS011;5080;48.528;8.078;2022-08-19T08:56:19;3.60;;;3.40;;
10082;SDS011;5080;48.528;8.078;2022-08-19T08:58:49;4.13;;;3.93;;
10082;SDS011;5080;48.528;8.078;2022-08-19T09:01:23;3.67;;;3.47;;
10082;SDS011;5080;48.528;8.078;2022-08-19T09:03:50;3.77;;;3.57;;
10082;SDS011;5080;48.528;8.078;2022-08-19T09:06:20;3.87;;;3.67;;
10082;SDS011;5080;48.528;8.078;2022-08-19T09:08:56;3.53;;;3.33;;
10082;SDS011;5080;48.528;8.078;2022-08-19T09:11:33;3.30;;;3.20;;
10082;SDS011;5080;48.528;8.078;2022-08-19T09:14:14;4.03;;;3.73;;
10082;SDS011;5080;48.528;8.078;2022-08-19T09:16:57;3.37;;;3.27;;
10082;SDS011;5080;48.528;8.078;2022-08-19T09:19:25;3.77;;;3.57;;
10082;SDS011;5080;48.528;8.078;2022-08-19T09:21:52;3.53;;;3.33;;
10082;SDS011;5080;48.528;8.078;2022-08-19T09:24:19;3.40;;;3.23;;
10082;SDS011;5080;48.528;8.078;2022-08-19T09:26:46;4.10;;;3.90;;
10082;SDS011;5080;48.528;8.078;2022-08-19T09:29:13;3.70;;;3.50;;
10082;SDS011;5080;48.528;8.078;2022-08-19T09:31:40;3.90;;;3.70;;
10082;SDS011;5080;48.528;8.078;2022-08-19T09:34:08;3.73;;;3.53;;
10082;SDS011;5080;48.528;8.078;2022-08-19T09:36:35;3.80;;;3.53;;
10082;SDS011;5080;48.528;8.078;2022-08-19T09:39:04;3.30;;;3.20;;
10082;SDS011;5080;48.528;8.078;2022-08-19T09:41:32;2.90;;;2.80;;
10082;SDS011;5080;48.528;8.078;2022-08-19T09:43:59;3.50;;;3.30;;
10082;SDS011;5080;48.528;8.078;2022-08-19T09:46:26;3.60;;;3.40;;
10082;SDS011;5080;48.528;8.078;2022-08-19T09:48:59;3.30;;;3.20;;
10082;SDS011;5080;48.528;8.078;2022-08-19T09:51:27;3.37;;;3.27;;
10082;SDS011;5080;48.528;8.078;2022-08-19T09:53:55;3.90;;;3.60;;
10082;SDS011;5080;48.528;8.078;2022-08-19T09:56:26;3.47;;;3.37;;
10082;SDS011;5080;48.528;8.078;2022-08-19T09:58:53;3.40;;;3.30;;
10082;SDS011;5080;48.528;8.078;2022-08-19T10:01:21;3.50;;;3.30;;
10082;SDS011;5080;48.528;8.078;2022-08-19T10:03:50;3.80;;;3.60;;
10082;SDS011;5080;48.528;8.078;2022-08-19T10:06:19;3.97;;;3.77;;
10082;SDS011;5080;48.528;8.078;2022-08-19T10:08:47;3.73;;;3.50;;
10082;SDS011;5080;48.528;8.078;2022-08-19T10:11:16;3.20;;;3.10;;
10082;SDS011;5080;48.528;8.078;2022-08-19T10:13:43;4.03;;;3.30;;
10082;SDS011;5080;48.528;8.078;2022-08-19T10:16:13;3.50;;;3.30;;
10082;SDS011;5080;48.528;8.078;2022-08-19T10:18:43;3.40;;;3.20;;
10082;SDS011;5080;48.528;8.078;2022-08-19T10:21:11;3.40;;;3.20;;
10082;SDS011;5080;48.528;8.078;2022-08-19T10:23:44;3.20;;;3.00;;
10082;SDS011;5080;48.528;8.078;2022-08-19T10:26:15;3.20;;;3.00;;
10082;SDS011;5080;48.528;8.078;2022-08-19T10:28:43;2.83;;;2.70;;
10082;SDS011;5080;48.528;8.078;2022-08-19T10:31:10;2.80;;;2.70;;
10082;SDS011;5080;48.528;8.078;2022-08-19T10:33:38;2.47;;;2.37;;
10082;SDS011;5080;48.528;8.078;2022-08-19T10:36:07;3.03;;;2.93;;
10082;SDS011;5080;48.528;8.078;2022-08-19T10:38:35;2.53;;;2.43;;
10082;SDS011;5080;48.528;8.078;2022-08-19T10:41:06;2.60;;;2.50;;
10082;SDS011;5080;48.528;8.078;2022-08-19T10:43:36;2.70;;;2.60;;
10082;SDS011;5080;48.528;8.078;2022-08-19T10:46:04;2.70;;;2.60;;
10082;SDS011;5080;48.528;8.078;2022-08-19T10:48:32;2.60;;;2.50;;
10082;SDS011;5080;48.528;8.078;2022-08-19T10:50:59;2.70;;;2.60;;
10082;SDS011;5080;48.528;8.078;2022-08-19T10:53:44;2.40;;;2.30;;
10082;SDS011;5080;48.528;8.078;2022-08-19T10:56:11;2.70;;;2.60;;
10082;SDS011;5080;48.528;8.078;2022-08-19T10:58:57;2.20;;;2.10;;
10082;SDS011;5080;48.528;8.078;2022-08-19T11:01:25;2.20;;;2.10;;
10082;SDS011;5080;48.528;8.078;2022-08-19T11:03:52;3.63;;;2.40;;
10082;SDS011;5080;48.528;8.078;2022-08-19T11:06:19;2.10;;;2.00;;
10082;SDS011;5080;48.528;8.078;2022-08-19T11:08:46;2.43;;;2.30;;
10082;SDS011;5080;48.528;8.078;2022-08-19T11:11:13;2.90;;;2.70;;
10082;SDS011;5080;48.528;8.078;2022-08-19T11:13:40;2.22;;;2.13;;
10082;SDS011;5080;48.528;8.078;2022-08-19T11:16:09;4.77;;;2.50;;
10082;SDS011;5080;48.528;8.078;2022-08-19T11:18:39;2.23;;;2.13;;
10082;SDS011;5080;48.528;8.078;2022-08-19T11:21:10;2.53;;;2.37;;
10082;SDS011;5080;48.528;8.078;2022-08-19T11:23:38;2.20;;;2.10;;
10082;SDS011;5080;48.528;8.078;2022-08-19T11:26:06;2.10;;;2.00;;
10082;SDS011;5080;48.528;8.078;2022-08-19T11:28:32;2.10;;;2.00;;
10082;SDS011;5080;48.528;8.078;2022-08-19T11:30:59;2.40;;;2.20;;
10082;SDS011;5080;48.528;8.078;2022-08-19T11:33:29;2.60;;;2.50;;
10082;SDS011;5080;48.528;8.078;2022-08-19T11:35:57;2.00;;;1.90;;
10082;SDS011;5080;48.528;8.078;2022-08-19T11:38:25;2.50;;;2.40;;
10082;SDS011;5080;48.528;8.078;2022-08-19T11:40:56;2.13;;;2.03;;
10082;SDS011;5080;48.528;8.078;2022-08-19T11:43:24;2.10;;;2.00;;
10082;SDS011;5080;48.528;8.078;2022-08-19T11:45:52;2.05;;;1.95;;
10082;SDS011;5080;48.528;8.078;2022-08-19T11:48:19;2.10;;;2.00;;
10082;SDS011;5080;48.528;8.078;2022-08-19T11:50:48;2.10;;;2.00;;
10082;SDS011;5080;48.528;8.078;2022-08-19T11:53:16;2.00;;;1.90;;
10082;SDS011;5080;48.528;8.078;2022-08-19T11:55:43;1.95;;;1.85;;
10082;SDS011;5080;48.528;8.078;2022-08-19T11:58:10;2.28;;;2.00;;
10082;SDS011;5080;48.528;8.078;2022-08-19T12:00:37;1.52;;;1.52;;
10082;SDS011;5080;48.528;8.078;2022-08-19T12:03:05;1.90;;;1.60;;
10082;SDS011;5080;48.528;8.078;2022-08-19T12:05:32;1.63;;;1.63;;
10082;SDS011;5080;48.528;8.078;2022-08-19T12:08:00;2.00;;;1.90;;
10082;SDS011;5080;48.528;8.078;2022-08-19T12:10:27;1.85;;;1.75;;
10082;SDS011;5080;48.528;8.078;2022-08-19T12:12:54;2.20;;;2.10;;
10082;SDS011;5080;48.528;8.078;2022-08-19T12:15:21;2.10;;;2.00;;
10082;SDS011;5080;48.528;8.078;2022-08-19T12:17:48;1.90;;;1.80;;
10082;SDS011;5080;48.528;8.078;2022-08-19T12:20:15;2.13;;;2.03;;
10082;SDS011;5080;48.528;8.078;2022-08-19T12:22:42;2.35;;;2.15;;
10082;SDS011;5080;48.528;8.078;2022-08-19T12:25:10;2.10;;;2.00;;
10082;SDS011;5080;48.528;8.078;2022-08-19T12:27:38;2.00;;;1.90;;
10082;SDS011;5080;48.528;8.078;2022-08-19T12:30:05;2.10;;;2.00;;
10082;SDS011;5080;48.528;8.078;2022-08-19T12:32:35;2.10;;;2.00;;
10082;SDS011;5080;48.528;8.078;2022-08-19T12:35:02;1.80;;;1.80;;
10082;SDS011;5080;48.528;8.078;2022-08-19T12:37:30;2.00;;;1.90;;
10082;SDS011;5080;48.528;8.078;2022-08-19T12:39:57;1.98;;;1.88;;
10082;SDS011;5080;48.528;8.078;2022-08-19T12:42:26;1.48;;;1.48;;
10082;SDS011;5080;48.528;8.078;2022-08-19T12:44:53;2.00;;;1.90;;
10082;SDS011;5080;48.528;8.078;2022-08-19T12:47:20;2.40;;;2.30;;
10082;SDS011;5080;48.528;8.078;2022-08-19T12:49:47;2.03;;;1.93;;
10082;SDS011;5080;48.528;8.078;2022-08-19T12:52:14;1.70;;;1.60;;
10082;SDS011;5080;48.528;8.078;2022-08-19T12:54:41;1.65;;;1.63;;
10082;SDS011;5080;48.528;8.078;2022-08-19T12:57:09;1.50;;;1.50;;
10082;SDS011;5080;48.528;8.078;2022-08-19T12:59:38;1.90;;;1.80;;
10082;SDS011;5080;48.528;8.078;2022-08-19T13:02:06;1.63;;;1.63;;
10082;SDS011;5080;48.528;8.078;2022-08-19T13:04:34;1.90;;;1.80;;
10082;SDS011;5080;48.528;8.078;2022-08-19T13:07:05;1.83;;;1.73;;
10082;SDS011;5080;48.528;8.078;2022-08-19T13:09:32;1.50;;;1.50;;
10082;SDS011;5080;48.528;8.078;2022-08-19T13:11:59;1.70;;;1.60;;
10082;SDS011;5080;48.528;8.078;2022-08-19T13:14:32;1.70;;;1.60;;
10082;SDS011;5080;48.528;8.078;2022-08-19T13:17:01;1.60;;;1.60;;
10082;SDS011;5080;48.528;8.078;2022-08-19T13:19:27;1.70;;;1.60;;
10082;SDS011;5080;48.528;8.078;2022-08-19T13:21:55;1.75;;;1.67;;
10082;SDS011;5080;48.528;8.078;2022-08-19T13:24:23;1.80;;;1.70;;
10082;SDS011;5080;48.528;8.078;2022-08-19T13:26:50;1.50;;;1.50;;
10082;SDS011;5080;48.528;8.078;2022-08-19T13:29:17;1.48;;;1.48;;
10082;SDS011;5080;48.528;8.078;2022-08-19T13:32:03;1.60;;;1.50;;
10082;SDS011;5080;48.528;8.078;2022-08-19T13:34:47;1.95;;;1.85;;
10082;SDS011;5080;48.528;8.078;2022-08-19T13:37:14;1.60;;;1.50;;
10082;SDS011;5080;48.528;8.078;2022-08-19T13:40:02;1.57;;;1.50;;
10082;SDS011;5080;48.528;8.078;2022-08-19T13:42:29;1.70;;;1.60;;
10082;SDS011;5080;48.528;8.078;2022-08-19T13:44:57;1.70;;;1.60;;
10082;SDS011;5080;48.528;8.078;2022-08-19T13:47:26;1.95;;;1.80;;
10082;SDS011;5080;48.528;8.078;2022-08-19T13:49:53;2.08;;;1.98;;
10082;SDS011;5080;48.528;8.078;2022-08-19T13:52:20;1.90;;;1.80;;
10082;SDS011;5080;48.528;8.078;2022-08-19T13:54:47;1.95;;;1.85;;
10082;SDS011;5080;48.528;8.078;2022-08-19T13:57:14;2.15;;;1.90;;
10082;SDS011;5080;48.528;8.078;2022-08-19T13:59:41;1.77;;;1.67;;
10082;SDS011;5080;48.528;8.078;2022-08-19T14:02:08;1.50;;;1.50;;
10082;SDS011;5080;48.528;8.078;2022-08-19T14:04:37;1.70;;;1.60;;
10082;SDS011;5080;48.528;8.078;2022-08-19T14:07:04;1.60;;;1.50;;
10082;SDS011;5080;48.528;8.078;2022-08-19T14:09:31;1.40;;;1.40;;
10082;SDS011;5080;48.528;8.078;2022-08-19T14:11:58;1.80;;;1.70;;
10082;SDS011;5080;48.528;8.078;2022-08-19T14:14:24;2.53;;;1.70;;
10082;SDS011;5080;48.528;8.078;2022-08-19T14:16:51;1.35;;;1.35;;
10082;SDS011;5080;48.528;8.078;2022-08-19T14:19:18;1.40;;;1.40;;
10082;SDS011;5080;48.528;8.078;2022-08-19T14:21:47;1.80;;;1.70;;
10082;SDS011;5080;48.528;8.078;2022-08-19T14:24:14;1.60;;;1.60;;
10082;SDS011;5080;48.528;8.078;2022-08-19T14:26:41;1.80;;;1.70;;
10082;SDS011;5080;48.528;8.078;2022-08-19T14:29:08;1.58;;;1.58;;
10082;SDS011;5080;48.528;8.078;2022-08-19T14:31:35;1.70;;;1.60;;
10082;SDS011;5080;48.528;8.078;2022-08-19T14:34:02;1.67;;;1.60;;
10082;SDS011;5080;48.528;8.078;2022-08-19T14:36:28;1.40;;;1.40;;
10082;SDS011;5080;48.528;8.078;2022-08-19T14:38:58;1.90;;;1.80;;
10082;SDS011;5080;48.528;8.078;2022-08-19T14:41:26;1.70;;;1.60;;
10082;SDS011;5080;48.528;8.078;2022-08-19T14:43:53;1.60;;;1.60;;
10082;SDS011;5080;48.528;8.078;2022-08-19T14:46:21;1.70;;;1.60;;
10082;SDS011;5080;48.528;8.078;2022-08-19T14:48:50;1.75;;;1.65;;
10082;SDS011;5080;48.528;8.078;2022-08-19T14:51:17;1.70;;;1.60;;
10082;SDS011;5080;48.528;8.078;2022-08-19T14:53:45;1.60;;;1.50;;
10082;SDS011;5080;48.528;8.078;2022-08-19T14:56:15;1.70;;;1.60;;
10082;SDS011;5080;48.528;8.078;2022-08-19T14:58:44;1.40;;;1.40;;
10082;SDS011;5080;48.528;8.078;2022-08-19T15:01:11;1.50;;;1.50;;
10082;SDS011;5080;48.528;8.078;2022-08-19T15:03:39;1.73;;;1.63;;
10082;SDS011;5080;48.528;8.078;2022-08-19T15:06:06;1.92;;;1.70;;
10082;SDS011;5080;48.528;8.078;2022-08-19T15:08:34;1.63;;;1.60;;